Aviation Digital Data Service (ADDS)

Output produced by METARs form (1709 UTC 24 August 2019)
found at http://www.aviationweather.gov/metar/data/
 
Forecast for: OPKC (KARACHI INTL ARP, PK)
Text: TAF OPKC 241530Z 2418/2524 24010G20KT 6000 SCT025
Forecast period: 1800 UTC 24 August 2019 to 0000 UTC 26 August 2019
Forecast type: FROM: standard forecast or significant change
Winds: from the WSW (240 degrees) at 12 MPH (10 knots; 5.1 m/s)
gusting to 23 MPH (20 knots; 10.3 m/s)
Visibility: 4 miles (6 km)
Ceiling: at least 12,000 feet AGL
Clouds: scattered clouds at 2500 feet AGL
Weather: no significant weather forecast for this period
Text: TEMPO 2500/2504 26005G15KT 5000 FU BKN020
Forecast period: 0000 to 0400 UTC 25 August 2019
Forecast type: TEMPORARY: The following changes expected for less than half the time period
Winds: from the W (260 degrees) at 6 MPH (5 knots; 2.6 m/s)
gusting to 17 MPH (15 knots; 7.7 m/s)
Visibility: 3 miles (5 km)
Ceiling: 2000 feet AGL
Clouds: broken clouds at 2000 feet AGL
Weather: FU  (smoke)